Time;durP1;ratioP1;P1;durP2;ratioP2;P2;SDS_P1;SDS_P2;PMS_P1;PMS_P2;Temp;Humidity;BMP_temperature;BMP_pressure;BME280_temperature;BME280_humidity;BME280_pressure;Samples;Min_cycle;Max_cycle;Signal;HPM_P1;HPM_P2
2022/10/01 00:01:51;;;;;;;7.85;2.30;;;8.30;99.90;;;;;;5076403;28;20086;-75
2022/10/01 00:04:18;;;;;;;5.72;2.28;;;8.40;99.90;;;;;;5092439;28;20078;-75
2022/10/01 00:06:47;;;;;;;3.38;2.10;;;8.50;99.90;;;;;;5089842;28;20168;-75
2022/10/01 00:09:14;;;;;;;3.42;2.53;;;8.50;99.90;;;;;;5078503;28;20048;-75
2022/10/01 00:11:42;;;;;;;3.38;1.90;;;8.60;99.90;;;;;;5066018;28;20048;-75
2022/10/01 00:14:09;;;;;;;2.50;1.90;;;8.70;99.90;;;;;;5092178;28;20044;-75
2022/10/01 00:16:36;;;;;;;7.80;2.25;;;8.70;99.90;;;;;;5089929;28;20075;-74
2022/10/01 00:19:04;;;;;;;6.35;2.38;;;8.80;99.90;;;;;;5089117;28;20059;-75
2022/10/01 00:21:32;;;;;;;5.25;2.80;;;8.80;99.90;;;;;;5091941;28;20044;-75
2022/10/01 00:24:05;;;;;;;8.43;2.80;;;8.80;99.90;;;;;;5091608;28;20138;-75
2022/10/01 00:26:34;;;;;;;9.55;3.63;;;8.90;99.90;;;;;;5089908;28;20052;-75
2022/10/01 00:29:07;;;;;;;3.33;2.50;;;8.90;99.90;;;;;;5088387;28;20096;-75
2022/10/01 00:31:35;;;;;;;6.40;2.35;;;8.80;99.90;;;;;;5072021;28;20142;-75
2022/10/01 00:34:03;;;;;;;4.15;2.65;;;8.80;99.90;;;;;;5073179;28;20048;-75
2022/10/01 00:36:31;;;;;;;5.43;3.40;;;8.80;99.90;;;;;;5089166;28;20055;-75
2022/10/01 00:38:59;;;;;;;4.82;2.47;;;8.80;99.90;;;;;;5089738;28;20117;-76
2022/10/01 00:41:30;;;;;;;8.50;2.97;;;8.90;99.90;;;;;;5091762;28;20603;-75
2022/10/01 00:44:00;;;;;;;8.32;2.55;;;8.90;99.90;;;;;;5089949;28;20052;-75
2022/10/01 00:46:36;;;;;;;5.50;3.53;;;8.90;99.90;;;;;;5054213;28;20043;-75
2022/10/01 00:49:09;;;;;;;4.13;2.38;;;8.90;99.90;;;;;;5090210;28;20584;-75
2022/10/01 00:51:41;;;;;;;5.20;2.50;;;8.90;99.90;;;;;;5091597;28;20090;-76
2022/10/01 00:54:12;;;;;;;10.57;2.55;;;8.90;99.90;;;;;;5089613;28;20523;-76
2022/10/01 00:56:42;;;;;;;2.63;1.92;;;8.90;99.90;;;;;;5072021;28;20055;-75
2022/10/01 00:59:11;;;;;;;4.07;2.78;;;9.00;99.90;;;;;;5091615;28;20060;-75
2022/10/01 01:01:39;;;;;;;6.95;2.45;;;9.00;99.90;;;;;;5091066;28;20080;-74
2022/10/01 01:04:15;;;;;;;4.68;2.10;;;9.10;99.90;;;;;;5053908;28;20455;-74
2022/10/01 01:06:43;;;;;;;5.20;2.58;;;9.10;99.90;;;;;;5071579;28;20676;-74
2022/10/01 01:09:11;;;;;;;2.92;2.00;;;9.10;99.90;;;;;;5091591;28;20499;-74
2022/10/01 01:11:46;;;;;;;4.20;2.00;;;9.20;99.90;;;;;;5090846;28;20051;-73
2022/10/01 01:14:20;;;;;;;3.08;2.00;;;9.20;99.90;;;;;;5071247;28;20048;-75
2022/10/01 01:16:52;;;;;;;6.38;1.60;;;9.20;99.90;;;;;;5090244;28;20070;-75
2022/10/01 01:19:36;;;;;;;2.72;2.33;;;9.20;99.90;;;;;;5091317;28;20111;-74
2022/10/01 01:22:07;;;;;;;2.47;1.60;;;9.20;99.90;;;;;;5074480;28;20052;-74
2022/10/01 01:24:49;;;;;;;2.75;1.95;;;9.20;99.90;;;;;;5087440;28;20148;-75
2022/10/01 01:27:37;;;;;;;3.30;2.10;;;9.20;99.90;;;;;;5089956;28;20052;-75
2022/10/01 01:30:09;;;;;;;6.00;2.22;;;9.20;99.90;;;;;;5091956;28;20048;-76
2022/10/01 01:32:48;;;;;;;6.53;1.85;;;9.20;99.90;;;;;;5074089;28;20523;-75
2022/10/01 01:35:24;;;;;;;8.30;2.45;;;9.10;99.90;;;;;;5057240;28;20075;-76
2022/10/01 01:38:00;;;;;;;8.38;2.38;;;9.20;99.90;;;;;;5091013;28;20105;-76
2022/10/01 01:40:30;;;;;;;9.07;3.20;;;9.20;99.90;;;;;;5087754;28;20054;-76
2022/10/01 01:42:59;;;;;;;17.35;4.43;;;9.20;99.90;;;;;;5088612;28;20043;-76
2022/10/01 01:45:30;;;;;;;9.95;2.97;;;9.20;99.90;;;;;;5090767;28;20138;-76
2022/10/01 01:48:01;;;;;;;13.68;3.40;;;9.20;99.90;;;;;;5090966;28;20098;-72
2022/10/01 01:50:33;;;;;;;20.55;4.40;;;9.20;99.90;;;;;;5080659;28;20170;-72
2022/10/01 01:53:01;;;;;;;13.00;3.77;;;9.20;99.90;;;;;;5080705;28;20147;-72
2022/10/01 01:55:30;;;;;;;12.82;3.13;;;9.20;99.90;;;;;;5072380;28;20282;-72
2022/10/01 01:57:58;;;;;;;9.82;3.28;;;9.30;99.90;;;;;;5090663;28;20109;-70
2022/10/01 02:00:27;;;;;;;6.55;2.47;;;9.30;99.90;;;;;;5077852;28;20080;-72
2022/10/01 02:02:57;;;;;;;6.45;3.40;;;9.30;99.90;;;;;;5086619;28;20500;-72
2022/10/01 02:05:30;;;;;;;10.23;3.72;;;9.30;99.90;;;;;;5089659;28;20056;-70
2022/10/01 02:08:25;;;;;;;7.57;3.17;;;9.30;99.90;;;;;;5088256;28;20134;-71
2022/10/01 02:11:08;;;;;;;12.20;3.13;;;9.30;99.90;;;;;;5067103;28;20073;-71
2022/10/01 02:13:49;;;;;;;17.35;4.00;;;9.30;99.90;;;;;;5076179;28;20058;-70
2022/10/01 02:16:29;;;;;;;15.52;3.38;;;9.30;99.90;;;;;;5092832;28;20055;-71
2022/10/01 02:19:01;;;;;;;9.10;2.50;;;9.30;99.90;;;;;;5090649;28;20108;-71
2022/10/01 02:21:35;;;;;;;9.13;2.90;;;9.30;99.90;;;;;;5093316;28;20147;-71
2022/10/01 02:24:13;;;;;;;5.15;2.70;;;9.30;99.90;;;;;;5094683;28;20379;-71
2022/10/01 02:26:43;;;;;;;12.02;2.67;;;9.30;99.90;;;;;;5074126;28;20046;-71
2022/10/01 02:29:14;;;;;;;7.00;2.88;;;9.30;99.90;;;;;;5088397;28;20048;-72
2022/10/01 02:31:44;;;;;;;6.43;2.90;;;9.30;99.90;;;;;;5093374;28;20449;-71
2022/10/01 02:34:14;;;;;;;29.85;3.97;;;9.30;99.90;;;;;;5094708;28;20055;-71
2022/10/01 02:36:45;;;;;;;9.30;3.25;;;9.30;99.90;;;;;;5087009;28;20596;-71
2022/10/01 02:39:16;;;;;;;8.50;2.97;;;9.40;99.90;;;;;;5092949;28;20047;-71
2022/10/01 02:41:45;;;;;;;3.10;2.50;;;9.30;99.90;;;;;;5092385;28;20048;-72
2022/10/01 02:44:20;;;;;;;7.68;3.53;;;9.30;99.90;;;;;;5075603;28;20453;-71
2022/10/01 02:46:56;;;;;;;7.38;2.70;;;9.30;99.90;;;;;;5075020;28;20071;-71
2022/10/01 02:49:24;;;;;;;4.43;2.90;;;9.20;99.90;;;;;;5093150;28;20054;-71
2022/10/01 02:52:00;;;;;;;5.07;2.75;;;9.20;99.90;;;;;;5075664;28;20135;-71
2022/10/01 02:54:35;;;;;;;4.93;2.67;;;9.20;99.90;;;;;;5087508;28;20036;-71
2022/10/01 02:59:47;;;;;;;3.53;2.67;;;9.20;99.90;;;;;;5082360;28;20058;-71
2022/10/01 03:02:16;;;;;;;7.10;2.72;;;9.20;99.90;;;;;;5074852;28;20040;-71
2022/10/01 03:04:43;;;;;;;3.60;3.15;;;9.20;99.90;;;;;;5092841;28;20507;-72
2022/10/01 03:07:11;;;;;;;10.80;3.08;;;9.20;99.90;;;;;;5108427;28;20054;-72
2022/10/01 03:09:38;;;;;;;6.93;2.45;;;9.30;99.90;;;;;;5114669;28;20124;-72
2022/10/01 03:12:06;;;;;;;3.95;2.90;;;9.30;99.90;;;;;;5103496;28;20067;-72
2022/10/01 03:14:33;;;;;;;5.70;2.97;;;9.30;99.90;;;;;;5075709;28;20048;-72
2022/10/01 03:17:01;;;;;;;2.97;2.67;;;9.30;99.90;;;;;;5091816;28;20067;-72
2022/10/01 03:19:30;;;;;;;5.95;3.08;;;9.30;99.90;;;;;;5091840;28;20045;-71
2022/10/01 03:21:57;;;;;;;5.68;3.00;;;9.30;99.90;;;;;;5095364;28;20117;-72
2022/10/01 03:24:24;;;;;;;5.28;3.00;;;9.20;99.90;;;;;;5091347;28;20043;-71
2022/10/01 03:26:52;;;;;;;3.63;2.80;;;9.10;99.90;;;;;;5091849;28;20095;-71
2022/10/01 03:29:19;;;;;;;4.95;3.10;;;9.00;99.90;;;;;;5092968;28;20059;-71
2022/10/01 03:31:46;;;;;;;6.82;3.38;;;8.90;99.90;;;;;;5090880;28;20048;-71
2022/10/01 03:34:13;;;;;;;4.45;3.00;;;8.90;99.90;;;;;;5072565;28;20495;-71
2022/10/01 03:36:42;;;;;;;4.00;3.53;;;8.90;99.90;;;;;;5091614;28;20113;-71
2022/10/01 03:39:10;;;;;;;4.35;3.92;;;8.80;99.90;;;;;;5091619;28;20044;-71
2022/10/01 03:41:37;;;;;;;16.80;4.03;;;8.70;99.90;;;;;;5090667;28;20492;-71
2022/10/01 03:44:05;;;;;;;9.10;4.50;;;8.80;99.90;;;;;;5090389;28;20142;-70
2022/10/01 03:46:32;;;;;;;9.27;4.75;;;8.80;99.90;;;;;;5073918;28;20135;-70
2022/10/01 03:48:59;;;;;;;12.18;5.30;;;8.70;99.90;;;;;;5091606;28;20052;-70
2022/10/01 03:51:27;;;;;;;9.52;6.07;;;8.70;99.90;;;;;;5069933;28;20427;-70
2022/10/01 03:53:56;;;;;;;7.85;5.80;;;8.60;99.90;;;;;;5071100;28;20561;-71
2022/10/01 03:56:24;;;;;;;8.65;6.28;;;8.50;99.90;;;;;;5070772;28;20113;-71
2022/10/01 03:58:51;;;;;;;11.32;6.65;;;8.50;99.90;;;;;;5090909;28;20210;-71
2022/10/01 04:01:19;;;;;;;9.93;7.55;;;8.40;99.90;;;;;;5074590;28;20505;-70
2022/10/01 04:03:46;;;;;;;9.70;7.32;;;8.40;99.90;;;;;;5088611;28;20047;-71
2022/10/01 04:06:13;;;;;;;11.45;8.32;;;8.40;99.90;;;;;;5092240;28;20605;-71
2022/10/01 04:08:42;;;;;;;13.75;7.85;;;8.40;99.90;;;;;;5090446;28;20056;-72
2022/10/01 04:11:11;;;;;;;14.18;8.50;;;8.40;99.90;;;;;;5081696;28;20206;-71
2022/10/01 04:13:38;;;;;;;9.13;7.80;;;8.40;99.90;;;;;;5085940;28;20523;-71
2022/10/01 04:16:06;;;;;;;12.57;8.73;;;8.30;99.90;;;;;;5073877;28;20426;-71
2022/10/01 04:18:34;;;;;;;11.15;8.45;;;8.40;99.90;;;;;;5066521;28;20048;-71
2022/10/01 04:21:01;;;;;;;9.77;8.77;;;8.30;99.90;;;;;;5088512;28;20055;-71
2022/10/01 04:23:29;;;;;;;13.80;10.43;;;8.20;99.90;;;;;;5089920;28;20099;-75
2022/10/01 04:26:01;;;;;;;14.48;8.50;;;8.10;99.90;;;;;;5077863;28;20138;-75
2022/10/01 04:28:31;;;;;;;12.60;8.45;;;8.00;99.90;;;;;;5090108;28;20101;-75
2022/10/01 04:33:41;;;;;;;11.73;9.27;;;8.00;99.90;;;;;;5090643;28;20048;-71
2022/10/01 04:36:09;;;;;;;16.45;9.40;;;8.00;99.90;;;;;;5090072;28;20516;-71
2022/10/01 04:38:36;;;;;;;10.27;9.02;;;8.10;99.90;;;;;;5088534;28;20048;-73
2022/10/01 04:41:04;;;;;;;14.45;9.52;;;8.10;99.90;;;;;;5054071;28;20055;-73
2022/10/01 04:43:33;;;;;;;15.07;9.68;;;8.20;99.90;;;;;;5084417;28;20066;-72
2022/10/01 04:46:01;;;;;;;18.15;10.35;;;8.20;99.90;;;;;;5067933;28;20127;-73
2022/10/01 04:48:28;;;;;;;12.98;9.32;;;8.20;99.90;;;;;;5089239;28;20083;-73
2022/10/01 04:50:56;;;;;;;13.05;9.18;;;8.20;99.90;;;;;;5091722;28;20036;-73
2022/10/01 04:53:23;;;;;;;14.82;9.75;;;8.20;99.90;;;;;;5092355;28;20104;-76
2022/10/01 04:55:50;;;;;;;15.15;10.75;;;8.20;99.90;;;;;;5089244;28;20086;-77
2022/10/01 04:58:18;;;;;;;16.20;10.55;;;8.20;99.90;;;;;;5071603;28;20047;-77
2022/10/01 05:00:49;;;;;;;13.68;10.77;;;8.20;99.90;;;;;;5078717;28;20118;-77
2022/10/01 05:03:16;;;;;;;13.02;10.82;;;8.20;99.90;;;;;;5101888;28;20524;-76
2022/10/01 05:05:44;;;;;;;13.85;11.05;;;8.20;99.90;;;;;;5067046;28;20136;-77
2022/10/01 05:08:12;;;;;;;17.30;12.43;;;8.20;99.90;;;;;;5062643;28;20499;-78
2022/10/01 05:10:39;;;;;;;22.15;13.23;;;8.20;99.90;;;;;;5073299;28;20547;-75
2022/10/01 05:13:11;;;;;;;16.80;12.50;;;8.20;99.90;;;;;;5073516;28;20147;-82
2022/10/01 05:15:38;;;;;;;14.98;12.55;;;8.20;99.90;;;;;;5053825;28;20048;-78
2022/10/01 05:18:08;;;;;;;15.15;10.95;;;8.30;99.90;;;;;;5090556;28;20043;-77
2022/10/01 05:20:36;;;;;;;15.55;11.55;;;8.30;99.90;;;;;;5091775;28;20044;-76
2022/10/01 05:23:03;;;;;;;15.23;10.10;;;8.30;99.90;;;;;;5071356;28;20130;-76
2022/10/01 05:25:31;;;;;;;13.98;11.40;;;8.50;99.90;;;;;;5069198;28;20044;-72
2022/10/01 05:28:04;;;;;;;38.03;15.75;;;8.50;99.90;;;;;;5088700;28;20051;-71
2022/10/01 05:30:31;;;;;;;14.68;10.30;;;8.50;99.90;;;;;;5071725;28;20594;-71
2022/10/01 05:33:02;;;;;;;22.15;14.80;;;8.50;99.90;;;;;;5088048;28;20463;-71
2022/10/01 05:35:31;;;;;;;11.63;10.38;;;8.60;99.90;;;;;;5088825;28;20535;-76
2022/10/01 05:38:01;;;;;;;15.43;10.73;;;8.90;99.90;;;;;;5071064;28;20055;-76
2022/10/01 05:40:30;;;;;;;12.35;10.75;;;8.90;99.90;;;;;;5074785;28;20049;-77
2022/10/01 05:43:01;;;;;;;13.10;10.55;;;8.90;99.90;;;;;;5041503;28;20534;-77
2022/10/01 05:45:30;;;;;;;16.60;12.55;;;8.70;99.90;;;;;;5052376;28;20474;-76
2022/10/01 05:47:59;;;;;;;13.77;11.68;;;8.70;99.90;;;;;;5087666;28;20109;-77
2022/10/01 05:50:31;;;;;;;13.80;11.57;;;8.60;99.90;;;;;;5088183;28;20048;-75
2022/10/01 05:53:00;;;;;;;21.38;12.07;;;8.70;99.90;;;;;;5047556;28;20048;-75
2022/10/01 05:55:33;;;;;;;15.32;12.25;;;8.70;99.90;;;;;;5071942;28;20372;-77
2022/10/01 05:58:02;;;;;;;14.93;12.73;;;8.80;99.90;;;;;;5090590;28;20070;-77
2022/10/01 06:00:32;;;;;;;18.10;13.27;;;8.80;99.90;;;;;;5087914;28;20457;-76
2022/10/01 06:03:02;;;;;;;17.15;13.93;;;8.80;99.90;;;;;;5088236;28;20597;-76
2022/10/01 06:05:33;;;;;;;19.65;14.25;;;8.90;99.90;;;;;;5089936;28;20051;-76
2022/10/01 06:08:01;;;;;;;18.38;14.60;;;8.90;99.90;;;;;;5090335;28;20072;-76
2022/10/01 06:10:29;;;;;;;17.55;14.23;;;9.00;99.90;;;;;;5069568;28;20054;-77
2022/10/01 06:13:00;;;;;;;19.83;14.98;;;8.90;99.90;;;;;;5089278;28;20143;-76
2022/10/01 06:15:28;;;;;;;19.10;14.48;;;9.00;99.90;;;;;;5071854;28;20052;-76
2022/10/01 06:17:56;;;;;;;21.80;15.90;;;9.10;99.90;;;;;;5090361;28;20087;-75
2022/10/01 06:20:23;;;;;;;20.27;14.38;;;9.20;99.90;;;;;;5089589;28;20074;-75
2022/10/01 06:22:57;;;;;;;15.00;13.38;;;9.30;99.90;;;;;;5096045;28;20040;-75
2022/10/01 06:25:27;;;;;;;14.65;12.38;;;9.30;99.90;;;;;;5091377;28;20531;-70
2022/10/01 06:27:56;;;;;;;16.40;13.55;;;9.30;99.90;;;;;;5106308;28;20184;-71
2022/10/01 06:30:26;;;;;;;15.85;12.82;;;9.20;99.90;;;;;;5070051;28;20052;-71
2022/10/01 06:32:53;;;;;;;15.93;11.75;;;9.20;99.90;;;;;;5071813;28;20052;-71
2022/10/01 06:35:20;;;;;;;14.95;11.65;;;9.20;99.90;;;;;;5056355;28;20044;-71
2022/10/01 06:37:48;;;;;;;17.55;12.77;;;9.30;99.90;;;;;;5076629;28;20052;-71
2022/10/01 06:40:16;;;;;;;13.38;11.20;;;9.30;99.90;;;;;;5092322;28;20097;-70
2022/10/01 06:42:48;;;;;;;16.48;12.70;;;9.50;99.90;;;;;;5092773;28;20127;-70
2022/10/01 06:45:16;;;;;;;13.07;10.00;;;10.00;99.90;;;;;;5110814;28;20514;-72
2022/10/01 06:47:44;;;;;;;12.80;10.48;;;11.10;99.90;;;;;;5086317;28;20573;-71
2022/10/01 06:50:15;;;;;;;13.13;10.13;;;12.30;99.90;;;;;;5071895;28;20052;-72
2022/10/01 06:52:51;;;;;;;18.77;11.93;;;13.30;99.90;;;;;;5055060;28;20048;-71
2022/10/01 06:55:22;;;;;;;10.57;9.13;;;14.10;99.90;;;;;;5072338;28;20082;-72
2022/10/01 06:57:55;;;;;;;9.68;8.02;;;15.10;99.90;;;;;;5089877;28;20054;-73
2022/10/01 07:00:23;;;;;;;9.75;8.85;;;16.00;99.90;;;;;;5074026;28;20090;-72
2022/10/01 07:02:51;;;;;;;9.50;8.55;;;16.80;99.90;;;;;;5090622;28;20076;-73
2022/10/01 07:05:18;;;;;;;11.23;9.20;;;17.70;99.90;;;;;;5091453;28;20360;-72
2022/10/01 07:07:47;;;;;;;11.00;8.43;;;18.20;99.90;;;;;;5087290;28;20054;-70
2022/10/01 07:10:19;;;;;;;9.80;7.65;;;18.50;99.90;;;;;;5056962;28;20095;-72
2022/10/01 07:12:49;;;;;;;9.70;8.45;;;19.20;99.90;;;;;;5089742;28;20040;-72
2022/10/01 07:15:20;;;;;;;8.98;8.18;;;19.80;99.90;;;;;;5087231;28;20568;-73
2022/10/01 07:17:49;;;;;;;11.38;8.13;;;20.10;99.90;;;;;;5089709;28;20166;-73
2022/10/01 07:20:18;;;;;;;8.38;7.10;;;20.20;99.90;;;;;;5073261;28;20040;-74
2022/10/01 07:22:46;;;;;;;9.55;7.65;;;20.20;99.90;;;;;;5093334;28;20047;-72
2022/10/01 07:25:14;;;;;;;8.40;7.57;;;19.70;99.90;;;;;;5092084;28;20043;-72
2022/10/01 07:27:41;;;;;;;9.20;8.02;;;18.90;99.90;;;;;;5093132;28;20571;-74
2022/10/01 07:30:11;;;;;;;8.88;7.97;;;18.00;99.90;;;;;;5093668;28;20047;-73
2022/10/01 07:32:38;;;;;;;14.70;9.07;;;17.10;99.90;;;;;;5071078;28;20423;-72
2022/10/01 07:35:07;;;;;;;12.95;9.75;;;16.30;99.90;;;;;;5072901;28;20101;-72
2022/10/01 07:37:35;;;;;;;10.73;9.63;;;15.60;99.90;;;;;;5093343;28;20040;-77
2022/10/01 07:40:15;;;;;;;14.75;10.05;;;15.20;99.90;;;;;;5092355;28;20537;-77
2022/10/01 07:42:43;;;;;;;19.88;10.73;;;14.90;99.90;;;;;;5072181;28;20094;-77
2022/10/01 07:45:12;;;;;;;14.30;9.43;;;14.90;99.90;;;;;;5065223;28;20045;-76
2022/10/01 07:47:40;;;;;;;19.00;9.90;;;14.60;99.90;;;;;;5071572;28;20064;-78
2022/10/01 07:50:08;;;;;;;15.63;9.55;;;14.30;99.90;;;;;;5059349;28;20082;-76
2022/10/01 07:52:36;;;;;;;10.60;9.48;;;14.10;99.90;;;;;;5085177;28;20579;-77
2022/10/01 07:55:04;;;;;;;14.93;8.35;;;14.30;99.90;;;;;;5084861;28;20055;-77
2022/10/01 07:57:33;;;;;;;11.77;10.15;;;14.50;99.90;;;;;;5098776;28;20047;-78
2022/10/01 08:00:00;;;;;;;12.57;10.02;;;14.80;99.90;;;;;;5094371;28;20064;-78
2022/10/01 08:02:29;;;;;;;13.05;9.57;;;15.60;99.90;;;;;;5074467;28;20056;-77
2022/10/01 08:07:41;;;;;;;16.83;10.00;;;18.40;99.90;;;;;;5082431;28;20181;-71
2022/10/01 08:10:09;;;;;;;15.02;10.43;;;19.70;99.90;;;;;;5088772;28;20043;-72
2022/10/01 08:12:36;;;;;;;14.02;11.70;;;20.00;99.90;;;;;;5084136;28;20060;-72
2022/10/01 08:15:09;;;;;;;12.65;10.27;;;18.70;99.90;;;;;;5092095;28;20369;-71
2022/10/01 08:17:38;;;;;;;11.07;9.98;;;18.20;99.90;;;;;;5072203;28;20052;-73
2022/10/01 08:20:09;;;;;;;12.10;10.35;;;18.40;99.90;;;;;;5072277;28;20047;-75
2022/10/01 08:22:36;;;;;;;10.88;9.43;;;19.10;99.90;;;;;;5088001;28;20043;-76
2022/10/01 08:25:05;;;;;;;9.88;8.88;;;19.70;99.90;;;;;;5056200;28;20040;-75
2022/10/01 08:27:33;;;;;;;9.85;8.90;;;19.90;99.90;;;;;;5085187;28;20063;-73
2022/10/01 08:30:00;;;;;;;9.60;8.25;;;20.60;99.90;;;;;;5088318;28;20059;-73
2022/10/01 08:32:29;;;;;;;12.50;8.38;;;21.70;97.50;;;;;;5090550;28;20075;-78
2022/10/01 08:35:00;;;;;;;10.60;8.23;;;22.90;93.20;;;;;;5087072;28;20032;-77
2022/10/01 08:37:28;;;;;;;12.68;8.55;;;23.10;89.50;;;;;;5091020;28;20051;-79
2022/10/01 08:39:56;;;;;;;11.23;7.85;;;23.10;90.60;;;;;;5087931;28;20052;-78
2022/10/01 08:42:47;;;;;;;11.63;7.38;;;23.60;86.40;;;;;;5088539;28;20055;-79
2022/10/01 08:45:21;;;;;;;12.75;7.65;;;23.90;85.40;;;;;;5090600;28;20060;-79
2022/10/01 08:47:58;;;;;;;8.00;7.30;;;24.40;82.10;;;;;;5091227;28;20044;-77
2022/10/01 08:50:39;;;;;;;11.45;6.50;;;24.90;77.90;;;;;;5091291;28;20058;-78
2022/10/01 08:53:16;;;;;;;10.43;7.13;;;25.40;74.00;;;;;;5101551;28;20074;-78
2022/10/01 08:55:50;;;;;;;6.93;6.22;;;25.90;73.10;;;;;;5105238;28;20083;-73
2022/10/01 08:58:25;;;;;;;9.82;7.10;;;26.20;71.10;;;;;;5092672;28;20546;-73
2022/10/01 09:00:53;;;;;;;9.68;6.65;;;26.10;67.90;;;;;;5111072;28;20055;-71
2022/10/01 09:03:23;;;;;;;7.88;6.43;;;25.70;68.60;;;;;;5111908;28;20491;-72
2022/10/01 09:06:15;;;;;;;8.50;6.45;;;26.00;67.70;;;;;;5099763;28;20044;-73
2022/10/01 09:09:08;;;;;;;6.63;5.97;;;26.40;65.80;;;;;;5085046;28;20606;-73
2022/10/01 09:11:45;;;;;;;;;;;26.50;64.50;;;;;;5085614;28;20048;-72
2022/10/01 09:15:04;;;;;;;8.65;6.85;;;26.90;62.90;;;;;;5051793;28;20023;-72
2022/10/01 09:17:52;;;;;;;8.25;7.45;;;27.40;60.40;;;;;;5036266;28;20057;-75
2022/10/01 09:20:26;;;;;;;7.35;6.40;;;27.40;61.20;;;;;;5067481;28;20044;-73
2022/10/01 09:23:17;;;;;;;9.88;6.80;;;27.20;60.80;;;;;;5069991;28;20051;-74
2022/10/01 09:25:50;;;;;;;7.90;6.75;;;26.40;61.10;;;;;;5086877;28;20538;-72
2022/10/01 09:28:21;;;;;;;11.60;6.40;;;24.70;63.90;;;;;;5088118;28;20082;-73
2022/10/01 09:30:55;;;;;;;10.05;6.85;;;23.00;67.40;;;;;;5078149;28;20121;-72
2022/10/01 09:33:29;;;;;;;7.55;5.85;;;21.30;73.30;;;;;;5073742;28;20048;-74
2022/10/01 09:36:06;;;;;;;12.70;7.25;;;19.90;78.30;;;;;;5068586;28;20106;-72
2022/10/01 09:38:40;;;;;;;9.48;6.28;;;19.10;81.20;;;;;;5087960;28;20067;-72
2022/10/01 09:41:09;;;;;;;13.35;6.30;;;18.40;83.20;;;;;;5088245;28;20052;-77
2022/10/01 09:43:40;;;;;;;9.35;6.03;;;18.10;89.00;;;;;;5068284;28;20052;-76
2022/10/01 09:46:12;;;;;;;13.82;6.35;;;17.90;90.30;;;;;;5087771;28;20072;-76
2022/10/01 09:48:45;;;;;;;9.00;7.35;;;18.30;90.30;;;;;;5055991;28;20056;-77
2022/10/01 09:51:17;;;;;;;8.40;5.80;;;19.80;89.10;;;;;;5080382;28;20053;-77
2022/10/01 09:53:59;;;;;;;8.85;5.70;;;21.30;81.40;;;;;;5078453;28;20123;-78
2022/10/01 09:56:31;;;;;;;7.35;5.82;;;22.50;80.20;;;;;;5079526;28;20044;-78
2022/10/01 09:59:04;;;;;;;10.07;6.00;;;23.80;77.00;;;;;;5081642;28;20044;-78
2022/10/01 10:01:44;;;;;;;9.43;6.32;;;24.60;71.30;;;;;;5064359;28;20054;-76
2022/10/01 10:04:12;;;;;;;12.95;6.95;;;23.10;72.60;;;;;;5089085;28;20128;-77
2022/10/01 10:06:40;;;;;;;10.68;7.13;;;21.60;77.50;;;;;;5080864;28;20529;-77
2022/10/01 10:09:17;;;;;;;9.15;7.13;;;20.40;81.60;;;;;;5089542;28;20142;-77
2022/10/01 10:11:45;;;;;;;13.85;6.53;;;19.80;85.20;;;;;;5086733;28;20056;-76
2022/10/01 10:14:31;;;;;;;10.70;7.07;;;19.50;85.10;;;;;;5088289;28;20040;-77
2022/10/01 10:17:04;;;;;;;9.45;5.40;;;19.60;88.90;;;;;;5087833;28;20058;-77
2022/10/01 10:19:32;;;;;;;7.30;5.93;;;19.60;84.30;;;;;;5086396;28;20557;-77
2022/10/01 10:22:12;;;;;;;10.00;6.43;;;19.20;84.60;;;;;;5071088;28;20040;-77
2022/10/01 10:24:41;;;;;;;7.03;6.30;;;18.90;86.10;;;;;;5090152;28;20130;-77
2022/10/01 10:27:25;;;;;;;8.30;6.10;;;18.80;87.60;;;;;;5071205;28;20059;-76
2022/10/01 10:30:04;;;;;;;9.10;6.55;;;18.90;87.40;;;;;;5082622;28;20052;-76
2022/10/01 10:32:31;;;;;;;10.70;7.80;;;18.30;88.40;;;;;;5082925;28;20052;-77
2022/10/01 10:35:03;;;;;;;8.68;7.18;;;17.80;91.40;;;;;;5088186;28;20052;-79
2022/10/01 10:37:36;;;;;;;11.65;7.90;;;18.10;91.90;;;;;;5086732;28;20052;-76
2022/10/01 10:40:07;;;;;;;11.32;7.65;;;19.00;91.60;;;;;;5091992;28;20052;-75
2022/10/01 10:42:37;;;;;;;10.02;6.90;;;19.20;90.70;;;;;;5070117;28;20048;-77
2022/10/01 10:45:19;;;;;;;10.45;7.22;;;19.10;91.30;;;;;;5093399;28;20051;-78
2022/10/01 10:47:52;;;;;;;7.55;6.95;;;19.80;91.30;;;;;;5072881;28;20152;-77
2022/10/01 10:50:33;;;;;;;12.13;7.60;;;20.90;89.80;;;;;;5083707;28;20576;-76
2022/10/01 10:53:19;;;;;;;10.40;8.90;;;21.50;85.80;;;;;;5085862;28;20048;-78
2022/10/01 10:55:59;;;;;;;12.57;8.30;;;21.60;84.70;;;;;;5087329;28;20052;-77
2022/10/01 10:58:29;;;;;;;34.30;12.25;;;20.70;84.90;;;;;;5072792;28;20048;-78
2022/10/01 11:01:00;;;;;;;10.07;8.57;;;19.90;88.60;;;;;;5090369;28;20067;-77
2022/10/01 11:03:31;;;;;;;10.30;9.27;;;19.00;90.80;;;;;;5089186;28;20058;-78
2022/10/01 11:06:03;;;;;;;12.48;8.77;;;18.40;92.10;;;;;;5068789;28;20048;-75
2022/10/01 11:08:32;;;;;;;12.10;8.50;;;18.30;93.90;;;;;;5054538;28;20492;-77
2022/10/01 11:11:19;;;;;;;11.20;9.02;;;18.40;93.30;;;;;;5089175;28;20484;-76
2022/10/01 11:14:14;;;;;;;13.13;8.93;;;18.60;93.20;;;;;;5090463;28;20134;-76
2022/10/01 11:17:04;;;;;;;10.48;9.23;;;18.60;93.00;;;;;;5090082;28;20432;-77
2022/10/01 11:19:54;;;;;;;11.23;9.27;;;18.60;93.10;;;;;;5083041;28;20044;-77
2022/10/01 11:22:41;;;;;;;11.07;8.75;;;18.40;93.20;;;;;;5090479;28;20131;-79
2022/10/01 11:25:29;;;;;;;11.77;8.73;;;17.60;93.50;;;;;;5090095;28;20441;-76
2022/10/01 11:28:11;;;;;;;9.35;8.45;;;17.00;94.70;;;;;;5081602;28;20518;-78
2022/10/01 11:30:53;;;;;;;11.13;8.30;;;16.40;96.10;;;;;;5092668;28;20048;-78
2022/10/01 11:33:33;;;;;;;17.60;8.93;;;16.20;97.50;;;;;;5070578;28;20094;-77
2022/10/01 11:36:08;;;;;;;9.55;8.45;;;16.20;98.40;;;;;;5089206;28;20549;-79
2022/10/01 11:38:53;;;;;;;8.85;7.95;;;16.50;98.90;;;;;;5089414;28;20048;-78
2022/10/01 11:41:35;;;;;;;11.27;7.65;;;18.30;97.50;;;;;;5088486;28;20052;-79
2022/10/01 11:44:12;;;;;;;10.93;8.30;;;21.20;91.90;;;;;;5081583;28;20072;-74
2022/10/01 11:46:57;;;;;;;7.93;7.20;;;22.80;84.60;;;;;;5072130;28;20048;-73
2022/10/01 11:49:52;;;;;;;7.63;7.00;;;23.20;80.20;;;;;;5090293;28;20089;-74
2022/10/01 11:52:32;;;;;;;10.32;7.43;;;23.30;76.90;;;;;;5090268;28;20513;-74
2022/10/01 12:01:02;;;;;;;7.75;6.88;;;19.80;87.30;;;;;;5072200;28;20204;-74
2022/10/01 12:03:36;;;;;;;10.75;6.68;;;19.00;89.70;;;;;;5090581;28;20585;-74
2022/10/01 12:06:08;;;;;;;7.55;6.85;;;18.60;91.00;;;;;;5090527;28;20054;-73
2022/10/01 12:08:37;;;;;;;9.82;6.50;;;18.70;91.20;;;;;;5073610;28;20147;-75
2022/10/01 12:11:17;;;;;;;8.85;5.82;;;18.60;91.20;;;;;;5088269;28;20424;-74
2022/10/01 12:13:54;;;;;;;8.13;5.13;;;18.20;91.90;;;;;;5079150;28;20080;-72
2022/10/01 12:16:33;;;;;;;6.90;4.95;;;17.70;92.80;;;;;;5067471;28;20491;-75
2022/10/01 12:19:05;;;;;;;5.22;4.72;;;17.50;93.60;;;;;;5070185;28;20040;-74
2022/10/01 12:21:39;;;;;;;11.00;5.13;;;17.30;95.50;;;;;;5084410;28;20052;-75
2022/10/01 12:24:14;;;;;;;7.22;5.38;;;16.90;96.20;;;;;;5069513;28;20454;-74
2022/10/01 12:26:53;;;;;;;5.70;5.20;;;16.50;96.50;;;;;;5053438;28;20044;-74
2022/10/01 12:29:31;;;;;;;7.60;5.03;;;16.20;97.00;;;;;;5088249;28;20052;-74
2022/10/01 12:32:12;;;;;;;9.13;5.57;;;16.00;97.90;;;;;;5076084;28;20411;-74
2022/10/01 12:34:49;;;;;;;10.48;5.50;;;16.00;98.60;;;;;;5091832;28;20133;-74
2022/10/01 12:37:33;;;;;;;9.35;5.38;;;15.90;99.80;;;;;;5083063;28;20474;-72
2022/10/01 12:40:20;;;;;;;7.05;5.35;;;16.20;99.70;;;;;;5069748;28;20526;-72
2022/10/01 12:43:06;;;;;;;8.70;5.93;;;16.10;99.90;;;;;;5072065;28;20112;-72
2022/10/01 12:45:51;;;;;;;9.88;5.90;;;16.20;99.90;;;;;;5075348;28;20120;-71
2022/10/01 12:48:33;;;;;;;5.68;4.97;;;16.00;99.90;;;;;;5077271;28;20059;-72
2022/10/01 12:51:23;;;;;;;9.80;5.50;;;16.00;99.90;;;;;;5090391;28;20047;-72
2022/10/01 12:54:00;;;;;;;8.00;4.65;;;16.60;99.90;;;;;;5086550;28;20138;-70
2022/10/01 12:56:32;;;;;;;6.85;4.25;;;18.10;98.90;;;;;;5081978;28;20151;-73
2022/10/01 12:59:28;;;;;;;5.63;4.47;;;19.30;95.10;;;;;;5088728;28;20051;-72
2022/10/01 13:02:15;;;;;;;6.38;4.25;;;19.20;93.80;;;;;;5068422;28;20528;-71
2022/10/01 13:05:19;;;;;;;6.03;4.50;;;18.40;94.80;;;;;;5081010;28;20052;-72
2022/10/01 13:08:03;;;;;;;6.28;4.38;;;18.10;95.80;;;;;;5087550;28;20059;-71
2022/10/01 13:10:48;;;;;;;7.85;4.50;;;18.00;96.40;;;;;;5089477;28;20093;-71
2022/10/01 13:13:20;;;;;;;7.75;4.53;;;18.10;96.30;;;;;;5089176;28;20051;-72
2022/10/01 13:15:55;;;;;;;5.65;4.18;;;19.10;95.50;;;;;;5063569;28;20075;-80
2022/10/01 13:18:39;;;;;;;6.97;4.07;;;20.50;92.40;;;;;;5084973;28;20075;-74
2022/10/01 13:21:17;;;;;;;8.05;4.70;;;22.00;88.90;;;;;;5063034;28;20081;-80
2022/10/01 13:23:50;;;;;;;4.97;4.32;;;23.10;82.00;;;;;;5082775;28;20052;-80
2022/10/01 13:26:27;;;;;;;6.13;4.53;;;23.00;82.00;;;;;;5050602;28;20047;-83
2022/10/01 13:29:19;;;;;;;14.63;5.00;;;22.30;80.10;;;;;;5065747;28;20048;-79